Oakland, Florida
Current Conditions -  °F | °C
As of 1:53 PM on Friday 21 Nov 2014 (Local Time) from KORL Reporting Station
Clear Clear  
Wind Chill: 74°   Ceiling: Unl
Heat Index: 74°   Visibility: 10mi
Dew Point: 52°   Wind: 12mph
Humidity: 46%   Direction: 40°NE
Pressure: 30.24"   Gusts: 21mph
Location:  28.55°N, 81.63°W
Report Text: KORL 211853Z 04010G18KT 10SM CLR 23/11 A3024 RMK AO2 SLP245 T02330111
Loading
Personal Weather Stations






























Interactive Weather Map New forecast layout! Learn more

10-Day Weather Forecast

Advertisements
Track Severe Weather on mobile